sensor_id;sensor_type;location;lat;lon;timestamp;P1;durP1;ratioP1;P2;durP2;ratioP2
59492;SDS011;45497;43.996;22.876;2023-02-28T00:00:48;38.60;;;21.43;;
59492;SDS011;45497;43.996;22.876;2023-02-28T00:03:14;28.67;;;18.50;;
59492;SDS011;45497;43.996;22.876;2023-02-28T00:05:39;31.30;;;19.25;;
59492;SDS011;45497;43.996;22.876;2023-02-28T00:08:06;30.27;;;19.75;;
59492;SDS011;45497;43.996;22.876;2023-02-28T00:10:32;30.83;;;19.07;;
59492;SDS011;45497;43.996;22.876;2023-02-28T00:13:01;32.30;;;19.83;;
59492;SDS011;45497;43.996;22.876;2023-02-28T00:15:29;31.80;;;18.40;;
59492;SDS011;45497;43.996;22.876;2023-02-28T00:17:55;28.65;;;17.90;;
59492;SDS011;45497;43.996;22.876;2023-02-28T00:20:21;27.37;;;16.97;;
59492;SDS011;45497;43.996;22.876;2023-02-28T00:22:47;24.17;;;15.20;;
59492;SDS011;45497;43.996;22.876;2023-02-28T00:25:16;29.35;;;18.27;;
59492;SDS011;45497;43.996;22.876;2023-02-28T00:27:43;21.58;;;14.32;;
59492;SDS011;45497;43.996;22.876;2023-02-28T00:30:10;21.33;;;14.63;;
59492;SDS011;45497;43.996;22.876;2023-02-28T00:32:38;24.60;;;15.63;;
59492;SDS011;45497;43.996;22.876;2023-02-28T00:35:04;29.80;;;18.47;;
59492;SDS011;45497;43.996;22.876;2023-02-28T00:37:30;22.40;;;14.52;;
59492;SDS011;45497;43.996;22.876;2023-02-28T00:39:56;21.70;;;14.43;;
59492;SDS011;45497;43.996;22.876;2023-02-28T00:42:21;23.77;;;15.30;;
59492;SDS011;45497;43.996;22.876;2023-02-28T00:44:47;23.00;;;14.93;;
59492;SDS011;45497;43.996;22.876;2023-02-28T00:47:12;26.07;;;17.17;;
59492;SDS011;45497;43.996;22.876;2023-02-28T00:49:38;22.60;;;13.95;;
59492;SDS011;45497;43.996;22.876;2023-02-28T00:52:03;22.83;;;14.13;;
59492;SDS011;45497;43.996;22.876;2023-02-28T00:54:29;22.37;;;13.87;;
59492;SDS011;45497;43.996;22.876;2023-02-28T00:56:54;22.27;;;13.47;;
59492;SDS011;45497;43.996;22.876;2023-02-28T00:59:20;23.57;;;14.23;;
59492;SDS011;45497;43.996;22.876;2023-02-28T01:01:46;23.50;;;14.07;;
59492;SDS011;45497;43.996;22.876;2023-02-28T01:04:12;26.83;;;16.00;;
59492;SDS011;45497;43.996;22.876;2023-02-28T01:06:38;20.80;;;13.10;;
59492;SDS011;45497;43.996;22.876;2023-02-28T01:09:04;22.83;;;13.85;;
59492;SDS011;45497;43.996;22.876;2023-02-28T01:11:30;22.63;;;13.90;;
59492;SDS011;45497;43.996;22.876;2023-02-28T01:13:57;22.73;;;13.80;;
59492;SDS011;45497;43.996;22.876;2023-02-28T01:16:22;21.63;;;13.82;;
59492;SDS011;45497;43.996;22.876;2023-02-28T01:18:48;20.45;;;12.98;;
59492;SDS011;45497;43.996;22.876;2023-02-28T01:21:14;21.60;;;13.10;;
59492;SDS011;45497;43.996;22.876;2023-02-28T01:23:41;22.75;;;13.68;;
59492;SDS011;45497;43.996;22.876;2023-02-28T01:26:12;21.27;;;13.60;;
59492;SDS011;45497;43.996;22.876;2023-02-28T01:28:41;23.27;;;14.20;;
59492;SDS011;45497;43.996;22.876;2023-02-28T01:31:07;21.45;;;13.82;;
59492;SDS011;45497;43.996;22.876;2023-02-28T01:33:33;26.17;;;15.53;;
59492;SDS011;45497;43.996;22.876;2023-02-28T01:36:00;24.57;;;14.90;;
59492;SDS011;45497;43.996;22.876;2023-02-28T01:38:27;26.20;;;15.93;;
59492;SDS011;45497;43.996;22.876;2023-02-28T01:40:53;21.97;;;14.50;;
59492;SDS011;45497;43.996;22.876;2023-02-28T01:43:20;24.08;;;15.45;;
59492;SDS011;45497;43.996;22.876;2023-02-28T01:45:49;21.27;;;14.27;;
59492;SDS011;45497;43.996;22.876;2023-02-28T01:48:15;23.65;;;14.27;;
59492;SDS011;45497;43.996;22.876;2023-02-28T01:50:41;22.65;;;13.65;;
59492;SDS011;45497;43.996;22.876;2023-02-28T01:53:18;22.23;;;14.30;;
59492;SDS011;45497;43.996;22.876;2023-02-28T01:55:48;22.45;;;14.23;;
59492;SDS011;45497;43.996;22.876;2023-02-28T01:58:17;21.08;;;13.73;;
59492;SDS011;45497;43.996;22.876;2023-02-28T02:00:42;19.65;;;13.40;;
59492;SDS011;45497;43.996;22.876;2023-02-28T02:03:08;22.40;;;13.57;;
59492;SDS011;45497;43.996;22.876;2023-02-28T02:05:38;21.88;;;13.43;;
59492;SDS011;45497;43.996;22.876;2023-02-28T02:08:05;20.30;;;13.53;;
59492;SDS011;45497;43.996;22.876;2023-02-28T02:10:35;19.57;;;12.87;;
59492;SDS011;45497;43.996;22.876;2023-02-28T02:18:20;21.55;;;13.32;;
59492;SDS011;45497;43.996;22.876;2023-02-28T02:34:35;27.30;;;16.08;;
59492;SDS011;45497;43.996;22.876;2023-02-28T02:37:07;26.63;;;16.27;;
59492;SDS011;45497;43.996;22.876;2023-02-28T02:39:48;26.48;;;16.75;;
59492;SDS011;45497;43.996;22.876;2023-02-28T02:43:11;26.15;;;15.77;;
59492;SDS011;45497;43.996;22.876;2023-02-28T02:45:30;26.65;;;16.65;;
59492;SDS011;45497;43.996;22.876;2023-02-28T02:48:27;30.73;;;17.95;;
59492;SDS011;45497;43.996;22.876;2023-02-28T02:50:59;34.67;;;23.00;;
59492;SDS011;45497;43.996;22.876;2023-02-28T02:53:29;31.33;;;19.02;;
59492;SDS011;45497;43.996;22.876;2023-02-28T02:55:58;28.20;;;17.38;;
59492;SDS011;45497;43.996;22.876;2023-02-28T02:58:28;29.90;;;17.67;;
59492;SDS011;45497;43.996;22.876;2023-02-28T03:00:57;27.63;;;16.60;;
59492;SDS011;45497;43.996;22.876;2023-02-28T03:03:26;24.95;;;16.05;;
59492;SDS011;45497;43.996;22.876;2023-02-28T03:05:55;28.00;;;16.13;;
59492;SDS011;45497;43.996;22.876;2023-02-28T03:08:23;29.43;;;16.80;;
59492;SDS011;45497;43.996;22.876;2023-02-28T03:10:49;27.20;;;16.20;;
59492;SDS011;45497;43.996;22.876;2023-02-28T03:23:44;26.45;;;14.98;;
59492;SDS011;45497;43.996;22.876;2023-02-28T03:26:23;29.67;;;16.07;;
59492;SDS011;45497;43.996;22.876;2023-02-28T03:34:29;21.05;;;13.20;;
59492;SDS011;45497;43.996;22.876;2023-02-28T03:37:19;23.20;;;13.25;;
59492;SDS011;45497;43.996;22.876;2023-02-28T03:39:47;20.73;;;12.73;;
59492;SDS011;45497;43.996;22.876;2023-02-28T03:42:20;20.02;;;12.90;;
59492;SDS011;45497;43.996;22.876;2023-02-28T03:44:59;20.88;;;13.00;;
59492;SDS011;45497;43.996;22.876;2023-02-28T03:48:11;19.77;;;12.50;;
59492;SDS011;45497;43.996;22.876;2023-02-28T03:52:58;18.35;;;12.30;;
59492;SDS011;45497;43.996;22.876;2023-02-28T03:55:38;20.88;;;13.07;;
59492;SDS011;45497;43.996;22.876;2023-02-28T04:00:57;19.60;;;12.80;;
59492;SDS011;45497;43.996;22.876;2023-02-28T04:03:49;19.13;;;12.70;;
59492;SDS011;45497;43.996;22.876;2023-02-28T04:06:16;21.17;;;12.50;;
59492;SDS011;45497;43.996;22.876;2023-02-28T04:08:45;18.97;;;12.87;;
59492;SDS011;45497;43.996;22.876;2023-02-28T04:13:52;20.83;;;12.35;;
59492;SDS011;45497;43.996;22.876;2023-02-28T04:16:18;20.53;;;12.73;;
59492;SDS011;45497;43.996;22.876;2023-02-28T04:18:43;20.13;;;12.53;;
59492;SDS011;45497;43.996;22.876;2023-02-28T04:21:09;19.45;;;12.43;;
59492;SDS011;45497;43.996;22.876;2023-02-28T04:23:35;21.45;;;13.00;;
59492;SDS011;45497;43.996;22.876;2023-02-28T04:26:00;21.10;;;12.67;;
59492;SDS011;45497;43.996;22.876;2023-02-28T04:28:26;23.25;;;13.55;;
59492;SDS011;45497;43.996;22.876;2023-02-28T04:30:56;22.30;;;13.98;;
59492;SDS011;45497;43.996;22.876;2023-02-28T04:33:26;24.43;;;14.23;;
59492;SDS011;45497;43.996;22.876;2023-02-28T04:36:05;20.77;;;13.27;;
59492;SDS011;45497;43.996;22.876;2023-02-28T04:38:34;21.88;;;14.25;;
59492;SDS011;45497;43.996;22.876;2023-02-28T04:41:00;24.60;;;14.52;;
59492;SDS011;45497;43.996;22.876;2023-02-28T04:43:27;21.48;;;13.52;;
59492;SDS011;45497;43.996;22.876;2023-02-28T04:45:53;24.75;;;14.65;;
59492;SDS011;45497;43.996;22.876;2023-02-28T04:48:25;22.67;;;13.13;;
59492;SDS011;45497;43.996;22.876;2023-02-28T04:50:52;23.77;;;13.57;;
59492;SDS011;45497;43.996;22.876;2023-02-28T04:53:18;18.33;;;11.90;;
59492;SDS011;45497;43.996;22.876;2023-02-28T04:55:44;17.88;;;11.80;;
59492;SDS011;45497;43.996;22.876;2023-02-28T04:58:10;18.20;;;11.27;;
59492;SDS011;45497;43.996;22.876;2023-02-28T05:00:35;16.63;;;11.43;;
59492;SDS011;45497;43.996;22.876;2023-02-28T05:03:01;15.50;;;9.87;;
59492;SDS011;45497;43.996;22.876;2023-02-28T05:05:26;13.47;;;8.53;;
59492;SDS011;45497;43.996;22.876;2023-02-28T05:07:52;10.80;;;8.00;;
59492;SDS011;45497;43.996;22.876;2023-02-28T05:10:18;12.85;;;8.68;;
59492;SDS011;45497;43.996;22.876;2023-02-28T05:12:44;12.73;;;8.23;;
59492;SDS011;45497;43.996;22.876;2023-02-28T05:15:14;13.10;;;9.30;;
59492;SDS011;45497;43.996;22.876;2023-02-28T05:17:40;11.13;;;7.88;;
59492;SDS011;45497;43.996;22.876;2023-02-28T05:20:07;12.45;;;7.80;;
59492;SDS011;45497;43.996;22.876;2023-02-28T05:22:36;11.17;;;7.03;;
59492;SDS011;45497;43.996;22.876;2023-02-28T05:25:02;11.38;;;6.70;;
59492;SDS011;45497;43.996;22.876;2023-02-28T05:27:30;7.00;;;4.65;;
59492;SDS011;45497;43.996;22.876;2023-02-28T05:29:56;4.32;;;3.35;;
59492;SDS011;45497;43.996;22.876;2023-02-28T05:32:21;5.18;;;3.45;;
59492;SDS011;45497;43.996;22.876;2023-02-28T05:34:47;4.33;;;3.33;;
59492;SDS011;45497;43.996;22.876;2023-02-28T05:37:12;8.00;;;3.45;;
59492;SDS011;45497;43.996;22.876;2023-02-28T05:39:39;4.17;;;2.97;;
59492;SDS011;45497;43.996;22.876;2023-02-28T05:42:04;3.53;;;2.50;;
59492;SDS011;45497;43.996;22.876;2023-02-28T05:44:31;3.83;;;3.30;;
59492;SDS011;45497;43.996;22.876;2023-02-28T05:46:57;4.90;;;2.95;;
59492;SDS011;45497;43.996;22.876;2023-02-28T05:49:22;5.10;;;3.40;;
59492;SDS011;45497;43.996;22.876;2023-02-28T05:51:47;7.00;;;3.63;;
59492;SDS011;45497;43.996;22.876;2023-02-28T05:54:13;5.03;;;3.38;;
59492;SDS011;45497;43.996;22.876;2023-02-28T05:56:38;4.17;;;3.03;;
59492;SDS011;45497;43.996;22.876;2023-02-28T05:59:06;7.57;;;3.88;;
59492;SDS011;45497;43.996;22.876;2023-02-28T06:03:58;6.17;;;3.87;;
59492;SDS011;45497;43.996;22.876;2023-02-28T06:06:25;5.03;;;3.47;;
59492;SDS011;45497;43.996;22.876;2023-02-28T06:08:51;4.38;;;3.30;;
59492;SDS011;45497;43.996;22.876;2023-02-28T06:11:16;4.13;;;3.37;;
59492;SDS011;45497;43.996;22.876;2023-02-28T06:13:42;5.33;;;3.70;;
59492;SDS011;45497;43.996;22.876;2023-02-28T06:16:09;4.93;;;3.80;;
59492;SDS011;45497;43.996;22.876;2023-02-28T06:18:35;6.53;;;4.18;;
59492;SDS011;45497;43.996;22.876;2023-02-28T06:21:01;4.38;;;3.55;;
59492;SDS011;45497;43.996;22.876;2023-02-28T06:23:27;6.57;;;4.03;;
59492;SDS011;45497;43.996;22.876;2023-02-28T06:25:52;6.50;;;4.33;;
59492;SDS011;45497;43.996;22.876;2023-02-28T06:28:18;8.63;;;4.13;;
59492;SDS011;45497;43.996;22.876;2023-02-28T06:30:44;5.75;;;3.80;;
59492;SDS011;45497;43.996;22.876;2023-02-28T06:33:09;7.73;;;4.77;;
59492;SDS011;45497;43.996;22.876;2023-02-28T06:35:35;5.77;;;4.00;;
59492;SDS011;45497;43.996;22.876;2023-02-28T06:38:00;5.15;;;4.38;;
59492;SDS011;45497;43.996;22.876;2023-02-28T06:40:26;4.43;;;4.03;;
59492;SDS011;45497;43.996;22.876;2023-02-28T06:42:51;4.83;;;4.10;;
59492;SDS011;45497;43.996;22.876;2023-02-28T06:45:17;5.78;;;4.40;;
59492;SDS011;45497;43.996;22.876;2023-02-28T06:47:42;5.72;;;4.15;;
59492;SDS011;45497;43.996;22.876;2023-02-28T06:50:09;6.30;;;4.50;;
59492;SDS011;45497;43.996;22.876;2023-02-28T06:52:37;6.53;;;5.15;;
59492;SDS011;45497;43.996;22.876;2023-02-28T06:55:04;7.23;;;5.80;;
59492;SDS011;45497;43.996;22.876;2023-02-28T06:57:31;8.80;;;5.63;;
59492;SDS011;45497;43.996;22.876;2023-02-28T07:00:01;12.77;;;8.13;;
59492;SDS011;45497;43.996;22.876;2023-02-28T07:02:31;9.90;;;6.38;;
59492;SDS011;45497;43.996;22.876;2023-02-28T07:04:56;8.27;;;6.88;;
59492;SDS011;45497;43.996;22.876;2023-02-28T07:07:22;12.20;;;8.60;;
59492;SDS011;45497;43.996;22.876;2023-02-28T07:09:47;9.77;;;7.00;;
59492;SDS011;45497;43.996;22.876;2023-02-28T07:12:13;8.70;;;6.80;;
59492;SDS011;45497;43.996;22.876;2023-02-28T07:14:38;6.83;;;5.87;;
59492;SDS011;45497;43.996;22.876;2023-02-28T07:17:04;9.30;;;6.00;;
59492;SDS011;45497;43.996;22.876;2023-02-28T07:19:32;8.27;;;6.05;;
59492;SDS011;45497;43.996;22.876;2023-02-28T07:21:57;11.03;;;7.13;;
59492;SDS011;45497;43.996;22.876;2023-02-28T07:24:23;7.83;;;5.60;;
59492;SDS011;45497;43.996;22.876;2023-02-28T07:26:50;5.97;;;5.15;;
59492;SDS011;45497;43.996;22.876;2023-02-28T07:29:16;8.43;;;5.57;;
59492;SDS011;45497;43.996;22.876;2023-02-28T07:31:41;7.67;;;5.57;;
59492;SDS011;45497;43.996;22.876;2023-02-28T07:34:07;6.57;;;5.40;;
59492;SDS011;45497;43.996;22.876;2023-02-28T07:36:32;7.38;;;5.20;;
59492;SDS011;45497;43.996;22.876;2023-02-28T07:38:58;6.37;;;5.70;;
59492;SDS011;45497;43.996;22.876;2023-02-28T07:41:25;9.93;;;6.50;;
59492;SDS011;45497;43.996;22.876;2023-02-28T07:43:55;13.23;;;9.23;;
59492;SDS011;45497;43.996;22.876;2023-02-28T07:46:22;10.23;;;7.40;;
59492;SDS011;45497;43.996;22.876;2023-02-28T07:48:48;7.47;;;6.00;;
59492;SDS011;45497;43.996;22.876;2023-02-28T07:51:13;7.17;;;5.87;;
59492;SDS011;45497;43.996;22.876;2023-02-28T07:53:39;6.88;;;5.53;;
59492;SDS011;45497;43.996;22.876;2023-02-28T07:56:05;9.25;;;5.95;;
59492;SDS011;45497;43.996;22.876;2023-02-28T07:58:31;9.05;;;5.75;;
59492;SDS011;45497;43.996;22.876;2023-02-28T08:00:56;6.70;;;5.28;;
59492;SDS011;45497;43.996;22.876;2023-02-28T08:03:29;7.22;;;6.10;;
59492;SDS011;45497;43.996;22.876;2023-02-28T08:05:54;8.93;;;6.30;;
59492;SDS011;45497;43.996;22.876;2023-02-28T08:08:20;9.90;;;7.13;;
59492;SDS011;45497;43.996;22.876;2023-02-28T08:10:45;8.65;;;6.10;;
59492;SDS011;45497;43.996;22.876;2023-02-28T08:13:11;9.93;;;6.40;;
59492;SDS011;45497;43.996;22.876;2023-02-28T08:15:36;7.77;;;6.27;;
59492;SDS011;45497;43.996;22.876;2023-02-28T08:18:02;9.70;;;6.80;;
59492;SDS011;45497;43.996;22.876;2023-02-28T08:20:27;9.17;;;6.90;;
59492;SDS011;45497;43.996;22.876;2023-02-28T08:22:53;9.30;;;6.40;;
59492;SDS011;45497;43.996;22.876;2023-02-28T08:25:18;8.13;;;5.90;;
59492;SDS011;45497;43.996;22.876;2023-02-28T08:27:44;8.32;;;6.70;;
59492;SDS011;45497;43.996;22.876;2023-02-28T08:30:11;7.93;;;6.47;;
59492;SDS011;45497;43.996;22.876;2023-02-28T08:32:37;9.18;;;6.10;;
59492;SDS011;45497;43.996;22.876;2023-02-28T08:35:04;7.53;;;6.28;;
59492;SDS011;45497;43.996;22.876;2023-02-28T08:37:30;9.25;;;7.07;;
59492;SDS011;45497;43.996;22.876;2023-02-28T08:39:56;7.97;;;5.53;;
59492;SDS011;45497;43.996;22.876;2023-02-28T08:42:21;9.70;;;6.20;;
59492;SDS011;45497;43.996;22.876;2023-02-28T08:44:47;7.50;;;5.97;;
59492;SDS011;45497;43.996;22.876;2023-02-28T08:47:12;7.13;;;5.50;;
59492;SDS011;45497;43.996;22.876;2023-02-28T08:49:38;9.07;;;6.53;;
59492;SDS011;45497;43.996;22.876;2023-02-28T08:52:03;7.90;;;6.40;;
59492;SDS011;45497;43.996;22.876;2023-02-28T08:54:29;8.50;;;5.93;;
59492;SDS011;45497;43.996;22.876;2023-02-28T08:56:56;9.60;;;6.63;;
59492;SDS011;45497;43.996;22.876;2023-02-28T08:59:22;7.93;;;5.60;;
59492;SDS011;45497;43.996;22.876;2023-02-28T09:01:47;8.00;;;5.97;;
59492;SDS011;45497;43.996;22.876;2023-02-28T09:04:13;11.10;;;6.88;;
59492;SDS011;45497;43.996;22.876;2023-02-28T09:06:38;9.60;;;6.60;;
59492;SDS011;45497;43.996;22.876;2023-02-28T09:09:04;9.93;;;6.70;;
59492;SDS011;45497;43.996;22.876;2023-02-28T09:11:31;9.87;;;7.33;;
59492;SDS011;45497;43.996;22.876;2023-02-28T09:13:57;8.60;;;6.88;;
59492;SDS011;45497;43.996;22.876;2023-02-28T09:16:25;7.95;;;6.68;;
59492;SDS011;45497;43.996;22.876;2023-02-28T09:18:51;10.70;;;6.88;;
59492;SDS011;45497;43.996;22.876;2023-02-28T09:21:18;9.10;;;7.18;;
59492;SDS011;45497;43.996;22.876;2023-02-28T09:23:44;10.88;;;7.88;;
59492;SDS011;45497;43.996;22.876;2023-02-28T09:26:19;8.32;;;7.20;;
59492;SDS011;45497;43.996;22.876;2023-02-28T09:28:47;10.77;;;8.25;;
59492;SDS011;45497;43.996;22.876;2023-02-28T09:31:14;27.10;;;13.90;;
59492;SDS011;45497;43.996;22.876;2023-02-28T09:33:41;18.23;;;10.15;;
59492;SDS011;45497;43.996;22.876;2023-02-28T09:36:06;10.10;;;7.90;;
59492;SDS011;45497;43.996;22.876;2023-02-28T09:38:32;10.57;;;7.47;;
59492;SDS011;45497;43.996;22.876;2023-02-28T09:41:00;10.93;;;7.73;;
59492;SDS011;45497;43.996;22.876;2023-02-28T09:43:47;11.32;;;8.48;;
59492;SDS011;45497;43.996;22.876;2023-02-28T09:46:21;10.95;;;7.95;;
59492;SDS011;45497;43.996;22.876;2023-02-28T09:48:50;10.90;;;8.52;;
59492;SDS011;45497;43.996;22.876;2023-02-28T09:54:23;11.60;;;8.98;;
59492;SDS011;45497;43.996;22.876;2023-02-28T10:04:54;11.53;;;9.10;;
59492;SDS011;45497;43.996;22.876;2023-02-28T10:12:51;13.27;;;9.50;;
59492;SDS011;45497;43.996;22.876;2023-02-28T10:15:19;12.68;;;9.70;;
59492;SDS011;45497;43.996;22.876;2023-02-28T10:17:50;12.45;;;9.88;;
59492;SDS011;45497;43.996;22.876;2023-02-28T10:20:20;13.70;;;9.67;;
59492;SDS011;45497;43.996;22.876;2023-02-28T10:23:21;13.23;;;9.47;;
59492;SDS011;45497;43.996;22.876;2023-02-28T10:25:46;12.13;;;9.07;;
59492;SDS011;45497;43.996;22.876;2023-02-28T10:28:18;13.10;;;8.93;;
59492;SDS011;45497;43.996;22.876;2023-02-28T10:30:44;12.23;;;9.02;;
59492;SDS011;45497;43.996;22.876;2023-02-28T10:33:22;16.02;;;10.55;;
59492;SDS011;45497;43.996;22.876;2023-02-28T10:36:02;12.43;;;8.88;;
59492;SDS011;45497;43.996;22.876;2023-02-28T10:38:36;11.95;;;9.20;;
59492;SDS011;45497;43.996;22.876;2023-02-28T10:41:08;12.05;;;9.82;;
59492;SDS011;45497;43.996;22.876;2023-02-28T10:43:51;14.95;;;9.68;;
59492;SDS011;45497;43.996;22.876;2023-02-28T10:46:18;14.45;;;9.90;;
59492;SDS011;45497;43.996;22.876;2023-02-28T10:49:00;16.63;;;11.43;;
59492;SDS011;45497;43.996;22.876;2023-02-28T10:51:33;14.02;;;9.63;;
59492;SDS011;45497;43.996;22.876;2023-02-28T10:54:04;13.05;;;10.02;;
59492;SDS011;45497;43.996;22.876;2023-02-28T10:56:31;13.40;;;10.52;;
59492;SDS011;45497;43.996;22.876;2023-02-28T11:01:42;13.02;;;9.82;;
59492;SDS011;45497;43.996;22.876;2023-02-28T11:07:04;13.82;;;9.75;;
59492;SDS011;45497;43.996;22.876;2023-02-28T11:09:51;12.52;;;9.52;;
59492;SDS011;45497;43.996;22.876;2023-02-28T11:12:38;13.10;;;10.43;;
59492;SDS011;45497;43.996;22.876;2023-02-28T11:15:14;13.40;;;9.50;;
59492;SDS011;45497;43.996;22.876;2023-02-28T11:18:33;17.57;;;10.63;;
59492;SDS011;45497;43.996;22.876;2023-02-28T11:20:57;14.23;;;9.70;;
59492;SDS011;45497;43.996;22.876;2023-02-28T11:23:27;12.43;;;9.40;;
59492;SDS011;45497;43.996;22.876;2023-02-28T11:25:56;11.73;;;9.57;;
59492;SDS011;45497;43.996;22.876;2023-02-28T11:38:44;13.20;;;9.65;;
59492;SDS011;45497;43.996;22.876;2023-02-28T11:41:28;14.13;;;10.63;;
59492;SDS011;45497;43.996;22.876;2023-02-28T11:46:42;11.40;;;8.83;;
59492;SDS011;45497;43.996;22.876;2023-02-28T11:57:24;13.77;;;9.70;;
59492;SDS011;45497;43.996;22.876;2023-02-28T12:00:38;16.17;;;9.95;;
59492;SDS011;45497;43.996;22.876;2023-02-28T12:06:00;10.50;;;8.80;;
59492;SDS011;45497;43.996;22.876;2023-02-28T12:25:24;15.35;;;11.45;;
59492;SDS011;45497;43.996;22.876;2023-02-28T12:28:03;14.48;;;10.90;;
59492;SDS011;45497;43.996;22.876;2023-02-28T12:30:31;15.30;;;10.25;;
59492;SDS011;45497;43.996;22.876;2023-02-28T12:33:06;15.80;;;11.73;;
59492;SDS011;45497;43.996;22.876;2023-02-28T12:35:38;15.38;;;10.88;;
59492;SDS011;45497;43.996;22.876;2023-02-28T12:38:22;17.63;;;11.55;;
59492;SDS011;45497;43.996;22.876;2023-02-28T12:40:54;18.45;;;11.90;;
59492;SDS011;45497;43.996;22.876;2023-02-28T12:43:45;15.38;;;11.43;;
59492;SDS011;45497;43.996;22.876;2023-02-28T12:48:40;14.30;;;11.27;;
59492;SDS011;45497;43.996;22.876;2023-02-28T12:51:07;16.40;;;12.50;;
59492;SDS011;45497;43.996;22.876;2023-02-28T12:59:03;13.88;;;9.80;;
59492;SDS011;45497;43.996;22.876;2023-02-28T13:09:55;20.55;;;11.75;;
59492;SDS011;45497;43.996;22.876;2023-02-28T13:12:23;12.60;;;9.02;;
59492;SDS011;45497;43.996;22.876;2023-02-28T13:14:49;13.63;;;9.82;;
59492;SDS011;45497;43.996;22.876;2023-02-28T13:17:19;13.75;;;10.32;;
59492;SDS011;45497;43.996;22.876;2023-02-28T13:27:22;20.57;;;13.57;;
59492;SDS011;45497;43.996;22.876;2023-02-28T13:29:56;17.87;;;12.23;;
59492;SDS011;45497;43.996;22.876;2023-02-28T13:32:32;23.00;;;14.10;;
59492;SDS011;45497;43.996;22.876;2023-02-28T13:39:51;16.92;;;12.48;;
59492;SDS011;45497;43.996;22.876;2023-02-28T13:45:19;20.58;;;12.82;;
59492;SDS011;45497;43.996;22.876;2023-02-28T13:58:20;20.80;;;12.48;;
59492;SDS011;45497;43.996;22.876;2023-02-28T14:03:57;19.83;;;12.38;;
59492;SDS011;45497;43.996;22.876;2023-02-28T14:06:35;20.15;;;12.35;;
59492;SDS011;45497;43.996;22.876;2023-02-28T14:09:18;24.60;;;14.23;;
59492;SDS011;45497;43.996;22.876;2023-02-28T14:11:50;26.47;;;16.37;;
59492;SDS011;45497;43.996;22.876;2023-02-28T14:16:59;16.08;;;11.05;;
59492;SDS011;45497;43.996;22.876;2023-02-28T14:19:27;16.45;;;11.65;;
59492;SDS011;45497;43.996;22.876;2023-02-28T14:24:48;23.40;;;13.73;;
59492;SDS011;45497;43.996;22.876;2023-02-28T14:30:26;18.55;;;12.60;;
59492;SDS011;45497;43.996;22.876;2023-02-28T14:33:00;23.25;;;14.27;;
59492;SDS011;45497;43.996;22.876;2023-02-28T14:35:31;16.30;;;11.65;;
59492;SDS011;45497;43.996;22.876;2023-02-28T14:38:13;19.58;;;12.07;;
59492;SDS011;45497;43.996;22.876;2023-02-28T14:40:43;21.37;;;13.27;;
59492;SDS011;45497;43.996;22.876;2023-02-28T14:43:27;26.08;;;14.15;;
59492;SDS011;45497;43.996;22.876;2023-02-28T14:45:54;25.67;;;15.15;;
59492;SDS011;45497;43.996;22.876;2023-02-28T14:48:23;23.45;;;13.85;;
59492;SDS011;45497;43.996;22.876;2023-02-28T14:50:52;21.05;;;14.82;;
59492;SDS011;45497;43.996;22.876;2023-02-28T14:53:20;21.98;;;14.27;;
59492;SDS011;45497;43.996;22.876;2023-02-28T14:55:49;27.38;;;15.95;;
59492;SDS011;45497;43.996;22.876;2023-02-28T15:00:50;27.93;;;14.70;;
59492;SDS011;45497;43.996;22.876;2023-02-28T15:05:53;21.03;;;13.17;;
59492;SDS011;45497;43.996;22.876;2023-02-28T15:08:23;21.00;;;13.82;;
59492;SDS011;45497;43.996;22.876;2023-02-28T15:10:58;21.33;;;12.97;;
59492;SDS011;45497;43.996;22.876;2023-02-28T15:13:44;19.05;;;12.77;;
59492;SDS011;45497;43.996;22.876;2023-02-28T15:16:16;21.10;;;13.93;;
59492;SDS011;45497;43.996;22.876;2023-02-28T15:21:22;20.73;;;13.05;;
59492;SDS011;45497;43.996;22.876;2023-02-28T15:23:53;19.07;;;12.63;;
59492;SDS011;45497;43.996;22.876;2023-02-28T15:26:23;19.87;;;13.40;;
59492;SDS011;45497;43.996;22.876;2023-02-28T15:28:54;23.48;;;15.50;;
59492;SDS011;45497;43.996;22.876;2023-02-28T15:31:29;21.67;;;14.82;;
59492;SDS011;45497;43.996;22.876;2023-02-28T15:33:58;19.60;;;13.43;;
59492;SDS011;45497;43.996;22.876;2023-02-28T15:36:29;20.30;;;13.10;;
59492;SDS011;45497;43.996;22.876;2023-02-28T15:38:58;19.45;;;13.35;;
59492;SDS011;45497;43.996;22.876;2023-02-28T15:41:26;21.25;;;13.63;;
59492;SDS011;45497;43.996;22.876;2023-02-28T15:44:14;18.50;;;12.27;;
59492;SDS011;45497;43.996;22.876;2023-02-28T15:47:02;21.75;;;13.23;;
59492;SDS011;45497;43.996;22.876;2023-02-28T15:49:53;19.55;;;13.38;;
59492;SDS011;45497;43.996;22.876;2023-02-28T15:52:33;18.63;;;13.02;;
59492;SDS011;45497;43.996;22.876;2023-02-28T15:55:26;18.52;;;12.95;;
59492;SDS011;45497;43.996;22.876;2023-02-28T15:57:54;19.63;;;14.63;;
59492;SDS011;45497;43.996;22.876;2023-02-28T16:00:24;23.33;;;14.27;;
59492;SDS011;45497;43.996;22.876;2023-02-28T16:02:51;22.27;;;14.73;;
59492;SDS011;45497;43.996;22.876;2023-02-28T16:05:24;20.80;;;14.52;;
59492;SDS011;45497;43.996;22.876;2023-02-28T16:08:00;24.53;;;15.10;;
59492;SDS011;45497;43.996;22.876;2023-02-28T16:10:27;25.92;;;16.83;;
59492;SDS011;45497;43.996;22.876;2023-02-28T16:12:54;27.43;;;18.07;;
59492;SDS011;45497;43.996;22.876;2023-02-28T16:15:22;26.92;;;17.17;;
59492;SDS011;45497;43.996;22.876;2023-02-28T16:17:51;22.25;;;14.98;;
59492;SDS011;45497;43.996;22.876;2023-02-28T16:20:21;24.38;;;15.98;;
59492;SDS011;45497;43.996;22.876;2023-02-28T16:22:52;27.73;;;16.50;;
59492;SDS011;45497;43.996;22.876;2023-02-28T16:25:23;27.33;;;17.33;;
59492;SDS011;45497;43.996;22.876;2023-02-28T16:27:54;23.67;;;16.08;;
59492;SDS011;45497;43.996;22.876;2023-02-28T16:30:21;23.13;;;16.55;;
59492;SDS011;45497;43.996;22.876;2023-02-28T16:32:50;23.42;;;15.45;;
59492;SDS011;45497;43.996;22.876;2023-02-28T16:35:16;24.67;;;16.17;;
59492;SDS011;45497;43.996;22.876;2023-02-28T16:37:43;23.90;;;14.52;;
59492;SDS011;45497;43.996;22.876;2023-02-28T16:40:20;21.50;;;14.75;;
59492;SDS011;45497;43.996;22.876;2023-02-28T16:42:48;23.13;;;14.35;;
59492;SDS011;45497;43.996;22.876;2023-02-28T16:45:26;22.80;;;15.18;;
59492;SDS011;45497;43.996;22.876;2023-02-28T16:47:53;30.52;;;19.20;;
59492;SDS011;45497;43.996;22.876;2023-02-28T16:50:24;31.10;;;18.63;;
59492;SDS011;45497;43.996;22.876;2023-02-28T16:52:52;24.02;;;15.57;;
59492;SDS011;45497;43.996;22.876;2023-02-28T16:55:19;31.52;;;17.67;;
59492;SDS011;45497;43.996;22.876;2023-02-28T16:57:47;28.17;;;16.70;;
59492;SDS011;45497;43.996;22.876;2023-02-28T17:00:20;26.50;;;16.70;;
59492;SDS011;45497;43.996;22.876;2023-02-28T17:02:46;25.80;;;16.27;;
59492;SDS011;45497;43.996;22.876;2023-02-28T17:05:12;28.40;;;17.40;;
59492;SDS011;45497;43.996;22.876;2023-02-28T17:07:38;22.48;;;14.73;;
59492;SDS011;45497;43.996;22.876;2023-02-28T17:10:14;35.70;;;20.15;;
59492;SDS011;45497;43.996;22.876;2023-02-28T17:12:47;28.98;;;18.02;;
59492;SDS011;45497;43.996;22.876;2023-02-28T17:15:14;32.63;;;20.30;;
59492;SDS011;45497;43.996;22.876;2023-02-28T17:17:41;28.60;;;18.52;;
59492;SDS011;45497;43.996;22.876;2023-02-28T17:20:28;27.70;;;17.65;;
59492;SDS011;45497;43.996;22.876;2023-02-28T17:22:54;33.03;;;18.67;;